sensor_id;sensor_type;location;lat;lon;timestamp;temperature;humidity
15103;DHT22;7652;53.584;9.998;2023-02-01T00:00:16;6.60;99.90
15103;DHT22;7652;53.584;9.998;2023-02-01T00:03:19;6.50;99.90
15103;DHT22;7652;53.584;9.998;2023-02-01T00:06:23;6.50;99.90
15103;DHT22;7652;53.584;9.998;2023-02-01T00:09:25;6.60;99.90
15103;DHT22;7652;53.584;9.998;2023-02-01T00:12:30;6.60;99.90
15103;DHT22;7652;53.584;9.998;2023-02-01T00:15:33;6.50;99.90
15103;DHT22;7652;53.584;9.998;2023-02-01T00:18:36;6.50;99.90
15103;DHT22;7652;53.584;9.998;2023-02-01T00:21:39;6.50;99.90
15103;DHT22;7652;53.584;9.998;2023-02-01T00:24:42;6.40;99.90
15103;DHT22;7652;53.584;9.998;2023-02-01T00:27:50;6.40;99.90
15103;DHT22;7652;53.584;9.998;2023-02-01T00:30:56;6.40;99.90
15103;DHT22;7652;53.584;9.998;2023-02-01T00:33:59;6.40;99.90
15103;DHT22;7652;53.584;9.998;2023-02-01T00:37:02;6.40;99.90
15103;DHT22;7652;53.584;9.998;2023-02-01T00:40:07;6.40;99.90
15103;DHT22;7652;53.584;9.998;2023-02-01T00:43:11;6.50;99.90
15103;DHT22;7652;53.584;9.998;2023-02-01T00:46:16;6.60;99.90
15103;DHT22;7652;53.584;9.998;2023-02-01T00:49:19;6.60;99.90
15103;DHT22;7652;53.584;9.998;2023-02-01T00:52:22;6.60;99.90
15103;DHT22;7652;53.584;9.998;2023-02-01T00:55:25;6.70;99.90
15103;DHT22;7652;53.584;9.998;2023-02-01T00:58:29;6.70;99.90
15103;DHT22;7652;53.584;9.998;2023-02-01T01:01:32;6.70;99.90
15103;DHT22;7652;53.584;9.998;2023-02-01T01:04:35;6.70;99.90
15103;DHT22;7652;53.584;9.998;2023-02-01T01:07:39;6.80;99.90
15103;DHT22;7652;53.584;9.998;2023-02-01T01:10:43;6.80;99.90
15103;DHT22;7652;53.584;9.998;2023-02-01T01:13:48;6.80;99.90
15103;DHT22;7652;53.584;9.998;2023-02-01T01:16:51;6.80;99.90
15103;DHT22;7652;53.584;9.998;2023-02-01T01:19:54;6.80;99.90
15103;DHT22;7652;53.584;9.998;2023-02-01T01:23:00;6.80;99.90
15103;DHT22;7652;53.584;9.998;2023-02-01T01:26:05;6.80;99.90
15103;DHT22;7652;53.584;9.998;2023-02-01T01:29:10;6.90;99.90
15103;DHT22;7652;53.584;9.998;2023-02-01T01:32:13;6.80;99.90
15103;DHT22;7652;53.584;9.998;2023-02-01T01:35:16;6.80;99.90
15103;DHT22;7652;53.584;9.998;2023-02-01T01:38:19;6.80;99.90
15103;DHT22;7652;53.584;9.998;2023-02-01T01:41:24;6.80;99.90
15103;DHT22;7652;53.584;9.998;2023-02-01T01:44:59;6.80;99.90
15103;DHT22;7652;53.584;9.998;2023-02-01T01:48:05;6.80;99.90
15103;DHT22;7652;53.584;9.998;2023-02-01T01:51:10;6.80;99.90
15103;DHT22;7652;53.584;9.998;2023-02-01T01:54:18;6.80;99.90
15103;DHT22;7652;53.584;9.998;2023-02-01T01:57:24;6.80;99.90
15103;DHT22;7652;53.584;9.998;2023-02-01T02:00:30;6.80;99.90
15103;DHT22;7652;53.584;9.998;2023-02-01T02:03:37;6.90;99.90
15103;DHT22;7652;53.584;9.998;2023-02-01T02:06:45;6.90;99.90
15103;DHT22;7652;53.584;9.998;2023-02-01T02:09:50;6.90;99.90
15103;DHT22;7652;53.584;9.998;2023-02-01T02:13:02;6.90;99.90
15103;DHT22;7652;53.584;9.998;2023-02-01T02:20:28;6.90;99.90
15103;DHT22;7652;53.584;9.998;2023-02-01T02:24:01;7.00;99.90
15103;DHT22;7652;53.584;9.998;2023-02-01T02:27:21;6.90;99.90
15103;DHT22;7652;53.584;9.998;2023-02-01T02:30:44;6.90;99.90
15103;DHT22;7652;53.584;9.998;2023-02-01T02:34:09;6.90;99.90
15103;DHT22;7652;53.584;9.998;2023-02-01T02:37:23;6.90;99.90
15103;DHT22;7652;53.584;9.998;2023-02-01T02:40:32;6.90;99.90
15103;DHT22;7652;53.584;9.998;2023-02-01T02:43:43;6.80;99.90
15103;DHT22;7652;53.584;9.998;2023-02-01T02:47:15;6.80;99.90
15103;DHT22;7652;53.584;9.998;2023-02-01T02:50:38;6.80;99.90
15103;DHT22;7652;53.584;9.998;2023-02-01T02:54:05;6.80;99.90
15103;DHT22;7652;53.584;9.998;2023-02-01T02:57:30;6.80;99.90
15103;DHT22;7652;53.584;9.998;2023-02-01T03:00:53;6.70;99.90
15103;DHT22;7652;53.584;9.998;2023-02-01T03:04:15;6.70;99.90
15103;DHT22;7652;53.584;9.998;2023-02-01T03:07:51;6.60;99.90
15103;DHT22;7652;53.584;9.998;2023-02-01T03:10:58;6.60;99.90
15103;DHT22;7652;53.584;9.998;2023-02-01T03:14:02;6.50;99.90
15103;DHT22;7652;53.584;9.998;2023-02-01T03:17:11;6.40;99.90
15103;DHT22;7652;53.584;9.998;2023-02-01T03:20:18;6.40;99.90
15103;DHT22;7652;53.584;9.998;2023-02-01T03:23:28;6.30;99.90
15103;DHT22;7652;53.584;9.998;2023-02-01T03:26:37;6.20;99.90
15103;DHT22;7652;53.584;9.998;2023-02-01T03:29:49;6.20;99.90
15103;DHT22;7652;53.584;9.998;2023-02-01T03:32:56;6.20;99.90
15103;DHT22;7652;53.584;9.998;2023-02-01T03:36:15;6.20;99.90
15103;DHT22;7652;53.584;9.998;2023-02-01T03:39:27;6.10;99.90
15103;DHT22;7652;53.584;9.998;2023-02-01T03:42:34;6.00;99.90
15103;DHT22;7652;53.584;9.998;2023-02-01T03:45:40;6.10;99.90
15103;DHT22;7652;53.584;9.998;2023-02-01T03:48:44;6.10;99.90
15103;DHT22;7652;53.584;9.998;2023-02-01T03:51:48;6.10;99.90
15103;DHT22;7652;53.584;9.998;2023-02-01T03:54:55;6.10;99.90
15103;DHT22;7652;53.584;9.998;2023-02-01T03:58:01;6.10;99.90
15103;DHT22;7652;53.584;9.998;2023-02-01T04:01:05;6.10;99.90
15103;DHT22;7652;53.584;9.998;2023-02-01T04:04:09;6.00;99.90
15103;DHT22;7652;53.584;9.998;2023-02-01T04:07:12;5.90;99.90
15103;DHT22;7652;53.584;9.998;2023-02-01T04:10:17;6.00;99.90
15103;DHT22;7652;53.584;9.998;2023-02-01T04:13:20;6.00;99.90
15103;DHT22;7652;53.584;9.998;2023-02-01T04:16:24;6.00;99.90
15103;DHT22;7652;53.584;9.998;2023-02-01T04:19:27;6.00;99.90
15103;DHT22;7652;53.584;9.998;2023-02-01T04:22:29;6.00;99.90
15103;DHT22;7652;53.584;9.998;2023-02-01T04:25:34;5.90;99.90
15103;DHT22;7652;53.584;9.998;2023-02-01T04:28:37;6.00;99.90
15103;DHT22;7652;53.584;9.998;2023-02-01T04:31:40;5.90;99.90
15103;DHT22;7652;53.584;9.998;2023-02-01T04:34:43;5.90;99.90
15103;DHT22;7652;53.584;9.998;2023-02-01T04:37:46;5.90;99.90
15103;DHT22;7652;53.584;9.998;2023-02-01T04:40:50;5.90;99.90
15103;DHT22;7652;53.584;9.998;2023-02-01T04:43:53;5.90;99.90
15103;DHT22;7652;53.584;9.998;2023-02-01T04:46:57;5.90;99.90
15103;DHT22;7652;53.584;9.998;2023-02-01T04:50:00;5.90;99.90
15103;DHT22;7652;53.584;9.998;2023-02-01T04:53:03;5.90;99.90
15103;DHT22;7652;53.584;9.998;2023-02-01T04:56:07;5.80;99.90
15103;DHT22;7652;53.584;9.998;2023-02-01T04:59:11;5.80;99.90
15103;DHT22;7652;53.584;9.998;2023-02-01T05:02:14;5.80;99.90
15103;DHT22;7652;53.584;9.998;2023-02-01T05:05:17;5.70;99.90
15103;DHT22;7652;53.584;9.998;2023-02-01T05:08:20;5.60;99.90
15103;DHT22;7652;53.584;9.998;2023-02-01T05:11:25;5.60;99.90
15103;DHT22;7652;53.584;9.998;2023-02-01T05:14:46;5.60;99.90
15103;DHT22;7652;53.584;9.998;2023-02-01T05:17:50;5.50;99.90
15103;DHT22;7652;53.584;9.998;2023-02-01T05:20:53;5.30;99.90
15103;DHT22;7652;53.584;9.998;2023-02-01T05:23:56;5.20;99.90
15103;DHT22;7652;53.584;9.998;2023-02-01T05:27:22;5.10;99.90
15103;DHT22;7652;53.584;9.998;2023-02-01T05:30:25;4.90;99.90
15103;DHT22;7652;53.584;9.998;2023-02-01T05:33:28;4.90;99.90
15103;DHT22;7652;53.584;9.998;2023-02-01T05:36:31;4.90;99.90
15103;DHT22;7652;53.584;9.998;2023-02-01T05:39:34;4.80;99.90
15103;DHT22;7652;53.584;9.998;2023-02-01T05:42:39;4.80;99.90
15103;DHT22;7652;53.584;9.998;2023-02-01T05:45:42;4.70;99.90
15103;DHT22;7652;53.584;9.998;2023-02-01T05:48:45;4.60;99.90
15103;DHT22;7652;53.584;9.998;2023-02-01T05:51:48;4.60;99.90
15103;DHT22;7652;53.584;9.998;2023-02-01T05:54:51;4.60;99.90
15103;DHT22;7652;53.584;9.998;2023-02-01T05:57:55;4.50;99.90
15103;DHT22;7652;53.584;9.998;2023-02-01T06:00:59;4.40;99.90
15103;DHT22;7652;53.584;9.998;2023-02-01T06:04:02;4.30;99.90
15103;DHT22;7652;53.584;9.998;2023-02-01T06:07:06;4.30;99.90
15103;DHT22;7652;53.584;9.998;2023-02-01T06:10:10;4.30;99.90
15103;DHT22;7652;53.584;9.998;2023-02-01T06:13:15;4.30;99.90
15103;DHT22;7652;53.584;9.998;2023-02-01T06:16:18;4.30;99.90
15103;DHT22;7652;53.584;9.998;2023-02-01T06:19:21;4.30;99.90
15103;DHT22;7652;53.584;9.998;2023-02-01T06:22:24;4.20;99.90
15103;DHT22;7652;53.584;9.998;2023-02-01T06:25:27;4.30;99.90
15103;DHT22;7652;53.584;9.998;2023-02-01T06:28:32;4.30;99.90
15103;DHT22;7652;53.584;9.998;2023-02-01T06:31:35;4.40;99.90
15103;DHT22;7652;53.584;9.998;2023-02-01T06:34:38;4.40;99.90
15103;DHT22;7652;53.584;9.998;2023-02-01T06:37:42;4.50;99.90
15103;DHT22;7652;53.584;9.998;2023-02-01T06:40:52;4.50;99.90
15103;DHT22;7652;53.584;9.998;2023-02-01T06:43:56;4.50;99.90
15103;DHT22;7652;53.584;9.998;2023-02-01T06:46:59;4.60;99.90
15103;DHT22;7652;53.584;9.998;2023-02-01T06:50:03;4.70;99.90
15103;DHT22;7652;53.584;9.998;2023-02-01T06:53:06;4.70;99.90
15103;DHT22;7652;53.584;9.998;2023-02-01T06:56:09;4.80;99.90
15103;DHT22;7652;53.584;9.998;2023-02-01T06:59:14;4.80;99.90
15103;DHT22;7652;53.584;9.998;2023-02-01T07:02:18;4.80;99.90
15103;DHT22;7652;53.584;9.998;2023-02-01T07:05:21;4.80;99.90
15103;DHT22;7652;53.584;9.998;2023-02-01T07:08:24;4.90;99.90
15103;DHT22;7652;53.584;9.998;2023-02-01T07:11:27;5.00;99.90
15103;DHT22;7652;53.584;9.998;2023-02-01T07:14:31;5.10;99.90
15103;DHT22;7652;53.584;9.998;2023-02-01T07:17:34;5.10;99.90
15103;DHT22;7652;53.584;9.998;2023-02-01T07:20:37;5.10;99.90
15103;DHT22;7652;53.584;9.998;2023-02-01T07:23:40;5.20;99.90
15103;DHT22;7652;53.584;9.998;2023-02-01T07:26:43;5.20;99.90
15103;DHT22;7652;53.584;9.998;2023-02-01T07:29:48;5.20;99.90
15103;DHT22;7652;53.584;9.998;2023-02-01T07:32:51;5.30;99.90
15103;DHT22;7652;53.584;9.998;2023-02-01T07:35:54;5.30;99.90
15103;DHT22;7652;53.584;9.998;2023-02-01T07:38:57;5.40;99.90
15103;DHT22;7652;53.584;9.998;2023-02-01T07:42:01;5.40;99.90
15103;DHT22;7652;53.584;9.998;2023-02-01T07:45:06;5.20;99.90
15103;DHT22;7652;53.584;9.998;2023-02-01T07:48:23;5.20;99.90
15103;DHT22;7652;53.584;9.998;2023-02-01T07:51:26;5.20;99.90
15103;DHT22;7652;53.584;9.998;2023-02-01T07:54:29;5.30;99.90
15103;DHT22;7652;53.584;9.998;2023-02-01T07:57:32;5.30;99.90
15103;DHT22;7652;53.584;9.998;2023-02-01T08:00:37;5.40;99.90
15103;DHT22;7652;53.584;9.998;2023-02-01T08:03:58;5.50;99.90
15103;DHT22;7652;53.584;9.998;2023-02-01T08:07:01;5.60;99.90
15103;DHT22;7652;53.584;9.998;2023-02-01T08:10:05;5.60;99.90
15103;DHT22;7652;53.584;9.998;2023-02-01T08:13:12;5.70;99.90
15103;DHT22;7652;53.584;9.998;2023-02-01T08:16:18;5.70;99.90
15103;DHT22;7652;53.584;9.998;2023-02-01T08:19:21;5.80;99.90
15103;DHT22;7652;53.584;9.998;2023-02-01T08:22:24;5.80;99.90
15103;DHT22;7652;53.584;9.998;2023-02-01T08:25:27;5.80;99.90
15103;DHT22;7652;53.584;9.998;2023-02-01T08:28:30;5.90;99.90
15103;DHT22;7652;53.584;9.998;2023-02-01T08:31:35;5.90;99.90
15103;DHT22;7652;53.584;9.998;2023-02-01T08:34:39;6.00;99.90
15103;DHT22;7652;53.584;9.998;2023-02-01T08:37:43;6.10;99.90
15103;DHT22;7652;53.584;9.998;2023-02-01T08:40:50;6.20;99.90
15103;DHT22;7652;53.584;9.998;2023-02-01T08:43:53;6.20;99.90
15103;DHT22;7652;53.584;9.998;2023-02-01T08:46:57;6.20;99.90
15103;DHT22;7652;53.584;9.998;2023-02-01T08:50:00;6.10;99.90
15103;DHT22;7652;53.584;9.998;2023-02-01T08:53:03;6.00;99.90
15103;DHT22;7652;53.584;9.998;2023-02-01T08:56:06;5.90;99.90
15103;DHT22;7652;53.584;9.998;2023-02-01T08:59:09;5.90;99.90
15103;DHT22;7652;53.584;9.998;2023-02-01T09:02:14;5.90;99.90
15103;DHT22;7652;53.584;9.998;2023-02-01T09:05:18;6.00;99.90
15103;DHT22;7652;53.584;9.998;2023-02-01T09:08:23;6.10;99.90
15103;DHT22;7652;53.584;9.998;2023-02-01T09:11:26;6.20;99.90
15103;DHT22;7652;53.584;9.998;2023-02-01T09:14:30;6.30;99.90
15103;DHT22;7652;53.584;9.998;2023-02-01T09:17:34;6.40;99.90
15103;DHT22;7652;53.584;9.998;2023-02-01T09:20:37;6.40;99.90
15103;DHT22;7652;53.584;9.998;2023-02-01T09:23:40;6.40;99.90
15103;DHT22;7652;53.584;9.998;2023-02-01T09:26:43;6.40;99.90
15103;DHT22;7652;53.584;9.998;2023-02-01T09:29:46;6.70;99.90
15103;DHT22;7652;53.584;9.998;2023-02-01T09:32:55;6.90;99.90
15103;DHT22;7652;53.584;9.998;2023-02-01T09:35:58;7.00;99.90
15103;DHT22;7652;53.584;9.998;2023-02-01T09:39:03;7.10;99.90
15103;DHT22;7652;53.584;9.998;2023-02-01T09:42:16;7.10;99.90
15103;DHT22;7652;53.584;9.998;2023-02-01T09:45:26;7.20;99.90
15103;DHT22;7652;53.584;9.998;2023-02-01T09:48:37;7.10;99.90
15103;DHT22;7652;53.584;9.998;2023-02-01T09:51:44;7.10;99.90
15103;DHT22;7652;53.584;9.998;2023-02-01T09:54:52;7.00;99.90
15103;DHT22;7652;53.584;9.998;2023-02-01T09:58:01;7.10;99.90
15103;DHT22;7652;53.584;9.998;2023-02-01T10:01:10;7.00;99.90
15103;DHT22;7652;53.584;9.998;2023-02-01T10:04:18;7.10;99.90
15103;DHT22;7652;53.584;9.998;2023-02-01T10:07:28;7.20;99.90
15103;DHT22;7652;53.584;9.998;2023-02-01T10:10:40;7.50;99.90
15103;DHT22;7652;53.584;9.998;2023-02-01T10:13:54;7.60;99.90
15103;DHT22;7652;53.584;9.998;2023-02-01T10:17:02;7.70;99.90
15103;DHT22;7652;53.584;9.998;2023-02-01T10:20:14;7.80;99.90
15103;DHT22;7652;53.584;9.998;2023-02-01T10:23:42;7.90;99.90
15103;DHT22;7652;53.584;9.998;2023-02-01T10:26:52;8.00;99.90
15103;DHT22;7652;53.584;9.998;2023-02-01T10:29:59;8.00;99.90
15103;DHT22;7652;53.584;9.998;2023-02-01T10:33:15;7.90;99.90
15103;DHT22;7652;53.584;9.998;2023-02-01T10:36:25;7.80;99.90
15103;DHT22;7652;53.584;9.998;2023-02-01T10:39:32;7.70;99.90
15103;DHT22;7652;53.584;9.998;2023-02-01T10:42:35;7.60;99.90
15103;DHT22;7652;53.584;9.998;2023-02-01T10:45:38;7.40;99.90
15103;DHT22;7652;53.584;9.998;2023-02-01T10:48:44;7.20;99.90
15103;DHT22;7652;53.584;9.998;2023-02-01T10:51:52;7.10;99.90
15103;DHT22;7652;53.584;9.998;2023-02-01T10:54:56;7.00;99.90
15103;DHT22;7652;53.584;9.998;2023-02-01T10:58:20;7.00;99.90
15103;DHT22;7652;53.584;9.998;2023-02-01T11:01:31;6.90;99.90
15103;DHT22;7652;53.584;9.998;2023-02-01T11:04:36;6.90;99.90
15103;DHT22;7652;53.584;9.998;2023-02-01T11:07:46;6.80;99.90
15103;DHT22;7652;53.584;9.998;2023-02-01T11:10:57;6.70;99.90
15103;DHT22;7652;53.584;9.998;2023-02-01T11:14:13;6.70;99.90
15103;DHT22;7652;53.584;9.998;2023-02-01T11:17:24;6.70;99.90
15103;DHT22;7652;53.584;9.998;2023-02-01T11:20:37;6.70;99.90
15103;DHT22;7652;53.584;9.998;2023-02-01T11:23:44;6.80;99.90
15103;DHT22;7652;53.584;9.998;2023-02-01T11:26:48;6.80;99.90
15103;DHT22;7652;53.584;9.998;2023-02-01T11:29:53;6.90;99.90
15103;DHT22;7652;53.584;9.998;2023-02-01T11:32:59;6.90;99.90
15103;DHT22;7652;53.584;9.998;2023-02-01T11:36:07;7.00;99.90
15103;DHT22;7652;53.584;9.998;2023-02-01T11:39:23;7.00;99.90
15103;DHT22;7652;53.584;9.998;2023-02-01T11:42:28;7.00;99.90
15103;DHT22;7652;53.584;9.998;2023-02-01T11:45:32;7.10;99.90
15103;DHT22;7652;53.584;9.998;2023-02-01T11:48:36;7.20;99.90
15103;DHT22;7652;53.584;9.998;2023-02-01T11:51:46;7.20;99.90
15103;DHT22;7652;53.584;9.998;2023-02-01T11:55:07;7.30;99.90
15103;DHT22;7652;53.584;9.998;2023-02-01T11:58:26;7.30;99.90
15103;DHT22;7652;53.584;9.998;2023-02-01T12:01:50;7.20;99.90
15103;DHT22;7652;53.584;9.998;2023-02-01T12:05:11;7.20;99.90
15103;DHT22;7652;53.584;9.998;2023-02-01T12:08:29;7.20;99.90
15103;DHT22;7652;53.584;9.998;2023-02-01T12:11:51;7.10;99.90
15103;DHT22;7652;53.584;9.998;2023-02-01T12:15:13;7.00;99.90
15103;DHT22;7652;53.584;9.998;2023-02-01T12:18:34;7.10;99.90
15103;DHT22;7652;53.584;9.998;2023-02-01T12:21:53;6.90;99.90
15103;DHT22;7652;53.584;9.998;2023-02-01T12:25:21;6.80;99.90
15103;DHT22;7652;53.584;9.998;2023-02-01T12:28:54;6.80;99.90
15103;DHT22;7652;53.584;9.998;2023-02-01T12:32:28;6.60;99.90
15103;DHT22;7652;53.584;9.998;2023-02-01T12:35:42;6.50;99.90
15103;DHT22;7652;53.584;9.998;2023-02-01T12:38:53;6.40;99.90
15103;DHT22;7652;53.584;9.998;2023-02-01T12:42:01;6.40;99.90
15103;DHT22;7652;53.584;9.998;2023-02-01T12:45:14;6.30;99.90
15103;DHT22;7652;53.584;9.998;2023-02-01T12:48:27;6.10;99.90
15103;DHT22;7652;53.584;9.998;2023-02-01T12:51:34;6.00;99.90
15103;DHT22;7652;53.584;9.998;2023-02-01T12:54:41;5.80;99.90
15103;DHT22;7652;53.584;9.998;2023-02-01T12:57:51;5.80;99.90
15103;DHT22;7652;53.584;9.998;2023-02-01T13:00:59;5.70;99.90
15103;DHT22;7652;53.584;9.998;2023-02-01T13:04:08;5.60;99.90
15103;DHT22;7652;53.584;9.998;2023-02-01T13:07:18;5.60;99.90
15103;DHT22;7652;53.584;9.998;2023-02-01T13:10:29;5.60;99.90
15103;DHT22;7652;53.584;9.998;2023-02-01T13:13:39;5.60;99.90
15103;DHT22;7652;53.584;9.998;2023-02-01T13:16:48;5.60;99.90
15103;DHT22;7652;53.584;9.998;2023-02-01T13:19:56;5.60;99.90
15103;DHT22;7652;53.584;9.998;2023-02-01T13:23:02;5.60;99.90
15103;DHT22;7652;53.584;9.998;2023-02-01T13:26:07;6.50;99.90
15103;DHT22;7652;53.584;9.998;2023-02-01T13:29:11;7.70;99.90
15103;DHT22;7652;53.584;9.998;2023-02-01T13:32:29;8.40;99.90
15103;DHT22;7652;53.584;9.998;2023-02-01T13:36:17;8.70;99.90
15103;DHT22;7652;53.584;9.998;2023-02-01T13:39:43;9.00;99.90
15103;DHT22;7652;53.584;9.998;2023-02-01T13:42:50;8.90;99.90
15103;DHT22;7652;53.584;9.998;2023-02-01T13:45:56;8.80;99.90
15103;DHT22;7652;53.584;9.998;2023-02-01T13:49:02;8.50;99.90
15103;DHT22;7652;53.584;9.998;2023-02-01T13:52:05;8.40;99.90
15103;DHT22;7652;53.584;9.998;2023-02-01T13:55:24;8.10;99.90
15103;DHT22;7652;53.584;9.998;2023-02-01T13:58:34;7.90;99.90
15103;DHT22;7652;53.584;9.998;2023-02-01T14:01:37;7.60;99.90
15103;DHT22;7652;53.584;9.998;2023-02-01T14:04:49;7.40;99.90
15103;DHT22;7652;53.584;9.998;2023-02-01T14:08:09;7.40;99.90
15103;DHT22;7652;53.584;9.998;2023-02-01T14:11:42;7.50;99.90
15103;DHT22;7652;53.584;9.998;2023-02-01T14:14:47;7.30;99.90
15103;DHT22;7652;53.584;9.998;2023-02-01T14:17:51;7.10;99.90
15103;DHT22;7652;53.584;9.998;2023-02-01T14:21:16;7.10;99.90
15103;DHT22;7652;53.584;9.998;2023-02-01T14:24:26;7.00;99.90
15103;DHT22;7652;53.584;9.998;2023-02-01T14:27:34;7.00;99.90
15103;DHT22;7652;53.584;9.998;2023-02-01T14:30:48;6.80;99.90
15103;DHT22;7652;53.584;9.998;2023-02-01T14:33:55;6.70;99.90
15103;DHT22;7652;53.584;9.998;2023-02-01T14:37:03;6.60;99.90
15103;DHT22;7652;53.584;9.998;2023-02-01T14:40:16;6.60;99.90
15103;DHT22;7652;53.584;9.998;2023-02-01T14:44:12;6.60;99.90
15103;DHT22;7652;53.584;9.998;2023-02-01T14:47:31;6.60;99.90
15103;DHT22;7652;53.584;9.998;2023-02-01T14:50:36;6.50;99.90
15103;DHT22;7652;53.584;9.998;2023-02-01T14:53:42;6.50;99.90
15103;DHT22;7652;53.584;9.998;2023-02-01T14:56:46;6.40;99.90
15103;DHT22;7652;53.584;9.998;2023-02-01T14:59:49;6.30;99.90
15103;DHT22;7652;53.584;9.998;2023-02-01T15:03:16;6.20;99.90
15103;DHT22;7652;53.584;9.998;2023-02-01T15:06:31;6.20;99.90
15103;DHT22;7652;53.584;9.998;2023-02-01T15:09:38;6.20;99.90
15103;DHT22;7652;53.584;9.998;2023-02-01T15:12:41;6.20;99.90
15103;DHT22;7652;53.584;9.998;2023-02-01T15:16:02;6.20;99.90
15103;DHT22;7652;53.584;9.998;2023-02-01T15:19:12;6.30;99.90
15103;DHT22;7652;53.584;9.998;2023-02-01T15:22:19;6.20;99.90
15103;DHT22;7652;53.584;9.998;2023-02-01T15:25:24;6.20;99.90
15103;DHT22;7652;53.584;9.998;2023-02-01T15:28:27;6.20;99.90
15103;DHT22;7652;53.584;9.998;2023-02-01T15:31:32;6.10;99.90
15103;DHT22;7652;53.584;9.998;2023-02-01T15:34:48;6.00;99.90
15103;DHT22;7652;53.584;9.998;2023-02-01T15:37:51;6.00;99.90
15103;DHT22;7652;53.584;9.998;2023-02-01T15:40:56;6.00;99.90
15103;DHT22;7652;53.584;9.998;2023-02-01T15:44:13;5.90;99.90
15103;DHT22;7652;53.584;9.998;2023-02-01T15:47:25;5.90;99.90
15103;DHT22;7652;53.584;9.998;2023-02-01T15:50:31;5.90;99.90
15103;DHT22;7652;53.584;9.998;2023-02-01T15:53:34;5.90;99.90
15103;DHT22;7652;53.584;9.998;2023-02-01T15:56:39;6.00;99.90
15103;DHT22;7652;53.584;9.998;2023-02-01T15:59:44;5.90;99.90
15103;DHT22;7652;53.584;9.998;2023-02-01T16:02:52;5.90;99.90
15103;DHT22;7652;53.584;9.998;2023-02-01T16:05:58;5.90;99.90
15103;DHT22;7652;53.584;9.998;2023-02-01T16:09:09;5.80;99.90
15103;DHT22;7652;53.584;9.998;2023-02-01T16:12:24;5.80;99.90
15103;DHT22;7652;53.584;9.998;2023-02-01T16:15:29;5.80;99.90
15103;DHT22;7652;53.584;9.998;2023-02-01T16:18:33;5.80;99.90
15103;DHT22;7652;53.584;9.998;2023-02-01T16:21:37;5.90;99.90
15103;DHT22;7652;53.584;9.998;2023-02-01T16:24:40;5.90;99.90
15103;DHT22;7652;53.584;9.998;2023-02-01T16:27:43;5.90;99.90
15103;DHT22;7652;53.584;9.998;2023-02-01T16:30:48;5.90;99.90
15103;DHT22;7652;53.584;9.998;2023-02-01T16:33:51;5.90;99.90
15103;DHT22;7652;53.584;9.998;2023-02-01T16:36:55;5.90;99.90
15103;DHT22;7652;53.584;9.998;2023-02-01T16:39:59;5.90;99.90
15103;DHT22;7652;53.584;9.998;2023-02-01T16:43:02;6.00;99.90
15103;DHT22;7652;53.584;9.998;2023-02-01T16:46:05;6.00;99.90
15103;DHT22;7652;53.584;9.998;2023-02-01T16:49:17;6.00;99.90
15103;DHT22;7652;53.584;9.998;2023-02-01T16:52:25;6.10;99.90
15103;DHT22;7652;53.584;9.998;2023-02-01T16:55:28;6.10;99.90
15103;DHT22;7652;53.584;9.998;2023-02-01T16:58:31;6.10;99.90
15103;DHT22;7652;53.584;9.998;2023-02-01T17:01:34;6.10;99.90
15103;DHT22;7652;53.584;9.998;2023-02-01T17:04:38;6.10;99.90
15103;DHT22;7652;53.584;9.998;2023-02-01T17:07:43;6.20;99.90
15103;DHT22;7652;53.584;9.998;2023-02-01T17:10:46;6.20;99.90
15103;DHT22;7652;53.584;9.998;2023-02-01T17:13:49;6.30;99.90
15103;DHT22;7652;53.584;9.998;2023-02-01T17:16:52;6.30;99.90
15103;DHT22;7652;53.584;9.998;2023-02-01T17:19:56;6.30;99.90
15103;DHT22;7652;53.584;9.998;2023-02-01T17:23:01;6.30;99.90
15103;DHT22;7652;53.584;9.998;2023-02-01T17:26:04;6.30;99.90
15103;DHT22;7652;53.584;9.998;2023-02-01T17:29:07;6.40;99.90
15103;DHT22;7652;53.584;9.998;2023-02-01T17:32:15;6.40;99.90
15103;DHT22;7652;53.584;9.998;2023-02-01T17:35:21;6.50;99.90
15103;DHT22;7652;53.584;9.998;2023-02-01T17:38:26;6.60;99.90
15103;DHT22;7652;53.584;9.998;2023-02-01T17:41:29;6.60;99.90
15103;DHT22;7652;53.584;9.998;2023-02-01T17:44:33;6.70;99.90
15103;DHT22;7652;53.584;9.998;2023-02-01T17:47:35;6.70;99.90
15103;DHT22;7652;53.584;9.998;2023-02-01T17:50:39;6.60;99.90
15103;DHT22;7652;53.584;9.998;2023-02-01T17:53:44;6.60;99.90
15103;DHT22;7652;53.584;9.998;2023-02-01T17:56:47;6.70;99.90
15103;DHT22;7652;53.584;9.998;2023-02-01T17:59:51;6.70;99.90
15103;DHT22;7652;53.584;9.998;2023-02-01T18:02:54;6.70;99.90
15103;DHT22;7652;53.584;9.998;2023-02-01T18:05:58;6.70;99.90
15103;DHT22;7652;53.584;9.998;2023-02-01T18:09:03;6.80;99.90
15103;DHT22;7652;53.584;9.998;2023-02-01T18:12:14;6.80;99.90
15103;DHT22;7652;53.584;9.998;2023-02-01T18:15:19;6.70;99.90
15103;DHT22;7652;53.584;9.998;2023-02-01T18:18:22;6.80;99.90
15103;DHT22;7652;53.584;9.998;2023-02-01T18:21:28;6.70;99.90
15103;DHT22;7652;53.584;9.998;2023-02-01T18:24:34;6.70;99.90
15103;DHT22;7652;53.584;9.998;2023-02-01T18:27:38;6.70;99.90
15103;DHT22;7652;53.584;9.998;2023-02-01T18:30:42;6.70;99.90
15103;DHT22;7652;53.584;9.998;2023-02-01T18:33:46;6.70;99.90
15103;DHT22;7652;53.584;9.998;2023-02-01T18:36:50;6.70;99.90
15103;DHT22;7652;53.584;9.998;2023-02-01T18:39:54;6.70;99.90
15103;DHT22;7652;53.584;9.998;2023-02-01T18:42:57;6.60;99.90
15103;DHT22;7652;53.584;9.998;2023-02-01T18:46:00;6.50;99.90
15103;DHT22;7652;53.584;9.998;2023-02-01T18:49:03;6.50;99.90
15103;DHT22;7652;53.584;9.998;2023-02-01T18:52:06;6.40;99.90
15103;DHT22;7652;53.584;9.998;2023-02-01T18:55:10;6.40;99.90
15103;DHT22;7652;53.584;9.998;2023-02-01T18:58:14;6.40;99.90
15103;DHT22;7652;53.584;9.998;2023-02-01T19:01:20;6.40;99.90
15103;DHT22;7652;53.584;9.998;2023-02-01T19:04:23;6.40;99.90
15103;DHT22;7652;53.584;9.998;2023-02-01T19:07:28;6.50;99.90
15103;DHT22;7652;53.584;9.998;2023-02-01T19:10:32;6.60;99.90
15103;DHT22;7652;53.584;9.998;2023-02-01T19:13:37;6.70;99.90
15103;DHT22;7652;53.584;9.998;2023-02-01T19:16:40;6.70;99.90
15103;DHT22;7652;53.584;9.998;2023-02-01T19:19:43;6.70;99.90
15103;DHT22;7652;53.584;9.998;2023-02-01T19:22:46;6.70;99.90
15103;DHT22;7652;53.584;9.998;2023-02-01T19:25:51;6.70;99.90
15103;DHT22;7652;53.584;9.998;2023-02-01T19:28:56;6.70;99.90
15103;DHT22;7652;53.584;9.998;2023-02-01T19:31:59;6.80;99.90
15103;DHT22;7652;53.584;9.998;2023-02-01T19:35:03;6.80;99.90
15103;DHT22;7652;53.584;9.998;2023-02-01T19:38:06;6.80;99.90
15103;DHT22;7652;53.584;9.998;2023-02-01T19:41:11;6.70;99.90
15103;DHT22;7652;53.584;9.998;2023-02-01T19:44:14;6.70;99.90
15103;DHT22;7652;53.584;9.998;2023-02-01T19:47:17;6.60;99.90
15103;DHT22;7652;53.584;9.998;2023-02-01T19:50:21;6.40;99.90
15103;DHT22;7652;53.584;9.998;2023-02-01T19:53:24;6.10;99.90
15103;DHT22;7652;53.584;9.998;2023-02-01T19:56:30;5.90;99.90
15103;DHT22;7652;53.584;9.998;2023-02-01T19:59:33;5.80;99.90
15103;DHT22;7652;53.584;9.998;2023-02-01T20:02:36;5.70;99.90
15103;DHT22;7652;53.584;9.998;2023-02-01T20:05:39;5.70;99.90
15103;DHT22;7652;53.584;9.998;2023-02-01T20:08:42;5.70;99.90
15103;DHT22;7652;53.584;9.998;2023-02-01T20:11:47;5.70;99.90
15103;DHT22;7652;53.584;9.998;2023-02-01T20:14:50;5.70;99.90
15103;DHT22;7652;53.584;9.998;2023-02-01T20:17:53;5.70;99.90
15103;DHT22;7652;53.584;9.998;2023-02-01T20:20:57;5.70;99.90
15103;DHT22;7652;53.584;9.998;2023-02-01T20:24:00;5.80;99.90
15103;DHT22;7652;53.584;9.998;2023-02-01T20:27:05;5.70;99.90